HECA/CAI METAR and TAF weather

Enter ICAO airport designator
Station Type Date Time Source
HECA METAR 2023/02/05 13:00 UTC NOAA

HECA 051300Z 25017KT 9999 SCT025 20/01 Q1011 NOSIG


Station Type Date Time Source
HECA Decoded METAR 2023/02/05 13:00 UTC NOAA

Cairo Airport, Egypt (HECA) 30-08N 031-24E 74M
Feb 05, 2023 - 08:00 AM EST / 2023.02.05 1300 UTC
Wind: from the WSW (250 degrees) at 20 MPH (17 KT):0
Visibility: greater than 7 mile(s):0
Sky conditions: partly cloudy
Temperature: 68 F (20 C)
Dew Point: 33 F (1 C)
Relative Humidity: 28%
Pressure (altimeter): 29.85 in. Hg (1011 hPa)
ob: HECA 051300Z 25017KT 9999 SCT025 20/01 Q1011 NOSIG
cycle: 13

Station Type Date Time Source
HECA TAF 2023/02/05 12:57 UTC NOAA

TAF HECA 051100Z 0512/0618 22010KT 9999 SCT025
TEMPO 0512/0518 20012G22KT 4000 SA
TEMPO 0516/0518 2000

Example: see airport list